No se requiere un especial cuidado respecto a la situación meteorológica.   -   No hay avisos

Informes METAR

 

LEZL - Sevilla, Spain
Distancia de la estación: ENE 8km
Actualización: 22/10/2018 14:00
Despejado
Despejado
 Viento de NE
Viento: NE 7 km/h
Temperatura: 24°C
Rocío: 17°C
Humedad: 65%
Barómetro: 1020 hPa
Resumen: Despejado
Visibilidad: mayor de 10 km
2018/10/22 12:00 LEZL 221200Z 04004KT 350V080 CAVOK 24/17 Q1020 NOSIG
LEMO - Morón, Spain
Distancia de la estación: SE 43km
Actualización: 22/10/2018 14:00
Poco nuboso
Poco nuboso
 Viento de NNE
Viento: NNE 6 km/h
Temperatura: 24°C
Rocío: 19°C
Humedad: 74%
Barómetro: 1020 hPa
Nubes: Poco nuboso
Visibilidad: 10 km
Detalles de las nubes: Poco nuboso 1219 m
2018/10/22 12:00 LEMO 221200Z 03003KT 330V110 9999 FEW040 24/19 Q1020 NOSIG
LEJR - Jeréz, Spain
Distancia de la estación: S 71km
Actualización: 22/10/2018 14:00
Poco nuboso
Poco nuboso
 Viento de O
Viento: O 7 km/h, Racha: 26 km/h
Temperatura: 25°C
Rocío: 17°C
Humedad: 61%
Barómetro: 1020 hPa
Nubes: Poco nuboso
Visibilidad: 10 km
Detalles de las nubes: Poco nuboso 1219 m
2018/10/22 12:00 LEJR 221200Z 26004G14KT 200V010 9999 FEW040 25/17 Q1020
 
LERT - Rota, Spain
Distancia de la estación: SSO 89km
Actualización: 22/10/2018 14:00
Parcialmente nuboso
Parcialmente nuboso
 Viento de SSE
Viento: SSE 11 km/h
Temperatura: 25°C
Rocío: 18°C
Humedad: 65%
Barómetro: 1019 hPa
Nubes: Parcialmente nuboso
Visibilidad: 10 km
Detalles de las nubes: Parcialmente nuboso 853 m
2018/10/22 12:00 LERT 221200Z 15006KT 110V200 9999 SCT028 25/18 Q1019 NOSIG
LEMG - Málaga, Spain
Distancia de la estación: ESE 157km
Actualización: 22/10/2018 14:00
Parcialmente nuboso
Parcialmente nuboso
 Viento de SSE
Viento: SSE 11 km/h
Temperatura: 23°C
Rocío: 17°C
Humedad: 69%
Barómetro: 1020 hPa
Nubes: Parcialmente nuboso
Visibilidad: 10 km
Detalles de las nubes: Poco nuboso 914 m
Parcialmente nuboso 1219 m
2018/10/22 12:00 LEMG 221200Z 15006KT 110V240 9999 FEW030TCU SCT040 23/17 Q1020 NOSIG
LEBA - Córdoba, Spain
Distancia de la estación: ENE 115km
Actualización: 22/10/2018 14:00
Despejado
Despejado
 Viento de E
Viento: E 9 km/h
Temperatura: 23°C
Rocío: 17°C
Humedad: 69%
Barómetro: 1020 hPa
Resumen: Despejado
Visibilidad: mayor de 10 km
2018/10/22 12:00 LEBA 221200Z 09005KT 040V120 CAVOK 23/17 Q1020
 
LEGR - Granada, Spain
Distancia de la estación: E 198km
Actualización: 22/10/2018 14:00
Poco nuboso
Poco nuboso
 Viento de variable
Viento: variable 2 km/h
Temperatura: 21°C
Rocío: 14°C
Humedad: 64%
Barómetro: 1021 hPa
Nubes: Poco nuboso
Visibilidad: 10 km
Detalles de las nubes: Poco nuboso 914 m
2018/10/22 12:00 LEGR 221200Z VRB01KT 9999 FEW030 21/14 Q1021
LEAM - Almería, Spain
Distancia de la estación: E 326km
Actualización: 22/10/2018 14:00
Poco nuboso
Poco nuboso
 Viento de SSO
Viento: SSO 11 km/h
Temperatura: 24°C
Rocío: 15°C
Humedad: 57%
Barómetro: 1020 hPa
Nubes: Poco nuboso
Visibilidad: 10 km
Detalles de las nubes: Poco nuboso 457 m
2018/10/22 12:00 LEAM 221200Z 20006KT 9999 FEW015 24/15 Q1020
LEMD - Madrid/Barajas, Spain
Distancia de la estación: NNE 402km
Actualización: 22/10/2018 14:00
Despejado
Despejado
 Viento de E
Viento: E 4 km/h
Temperatura: 22°C
Rocío: 13°C
Humedad: 57%
Barómetro: 1022 hPa
Resumen: Despejado
Visibilidad: mayor de 10 km
2018/10/22 12:00 LEMD 221200Z 08002KT CAVOK 22/13 Q1022 NOSIG
 
LEVD - Valladolid, Spain
Distancia de la estación: N 492km
Actualización: 22/10/2018 14:00
Despejado
Despejado
 Viento de ENE
Viento: ENE 35 km/h
Temperatura: 17°C
Rocío: 4°C
Humedad: 42%
Barómetro: 1025 hPa
Resumen: Despejado
Visibilidad: mayor de 10 km
2018/10/22 12:00 LEVD 221200Z 06019KT CAVOK 17/04 Q1025
LEBL - Barcelona, Spain
Distancia de la estación: NE 816km
Actualización: 22/10/2018 14:00
Poco nuboso
Poco nuboso
 Viento de E
Viento: E 15 km/h
Temperatura: 22°C
Rocío: 13°C
Humedad: 57%
Barómetro: 1021 hPa
Nubes: Poco nuboso
Visibilidad: 10 km
Detalles de las nubes: Poco nuboso 762 m
2018/10/22 12:00 LEBL 221200Z 10008KT 070V130 9999 FEW025 22/13 Q1021 NOSIG
LEVC - Valencia, Spain
Distancia de la estación: ENE 535km
Actualización: 22/10/2018 14:00
Poco nuboso
Poco nuboso
 Viento de ENE
Viento: ENE 19 km/h
Temperatura: 23°C
Rocío: 16°C
Humedad: 65%
Barómetro: 1021 hPa
Nubes: Poco nuboso
Visibilidad: 10 km
Detalles de las nubes: Poco nuboso 762 m
2018/10/22 12:00 LEVC 221200Z 06010KT 040V100 9999 FEW025 23/16 Q1021 NOSIG